sensor_id;sensor_type;location;lat;lon;timestamp;pressure;altitude;pressure_sealevel;temperature;humidity
37610;BME280;23457;51.966;8.230;2023-06-19T00:01:30;100332.13;;;24.78;46.59
37610;BME280;23457;51.966;8.230;2023-06-19T00:03:57;100323.00;;;24.84;46.67
37610;BME280;23457;51.966;8.230;2023-06-19T00:06:23;100317.00;;;24.61;47.42
37610;BME280;23457;51.966;8.230;2023-06-19T00:08:51;100319.03;;;24.56;48.05
37610;BME280;23457;51.966;8.230;2023-06-19T00:11:17;100305.81;;;24.55;47.17
37610;BME280;23457;51.966;8.230;2023-06-19T00:13:44;100296.16;;;24.71;47.02
37610;BME280;23457;51.966;8.230;2023-06-19T00:16:11;100290.56;;;24.77;46.56
37610;BME280;23457;51.966;8.230;2023-06-19T00:18:38;100275.41;;;24.60;47.10
37610;BME280;23457;51.966;8.230;2023-06-19T00:21:07;100273.09;;;24.72;46.90
37610;BME280;23457;51.966;8.230;2023-06-19T00:23:34;100275.09;;;24.49;47.64
37610;BME280;23457;51.966;8.230;2023-06-19T00:26:16;100271.84;;;24.61;47.27
37610;BME280;23457;51.966;8.230;2023-06-19T00:28:44;100262.00;;;24.63;47.24
37610;BME280;23457;51.966;8.230;2023-06-19T00:31:11;100265.03;;;24.56;47.50
37610;BME280;23457;51.966;8.230;2023-06-19T00:33:41;100258.34;;;24.66;47.45
37610;BME280;23457;51.966;8.230;2023-06-19T00:36:12;100255.59;;;24.68;47.28
37610;BME280;23457;51.966;8.230;2023-06-19T00:38:39;100241.84;;;24.77;47.14
37610;BME280;23457;51.966;8.230;2023-06-19T00:41:06;100232.63;;;24.84;47.27
37610;BME280;23457;51.966;8.230;2023-06-19T00:43:33;100226.56;;;24.82;46.97
37610;BME280;23457;51.966;8.230;2023-06-19T00:46:01;100224.97;;;24.78;47.54
37610;BME280;23457;51.966;8.230;2023-06-19T00:48:28;100223.72;;;24.68;47.77
37610;BME280;23457;51.966;8.230;2023-06-19T00:50:56;100231.38;;;24.74;47.55
37610;BME280;23457;51.966;8.230;2023-06-19T00:53:23;100223.72;;;24.68;47.54
37610;BME280;23457;51.966;8.230;2023-06-19T00:55:51;100233.41;;;24.69;47.33
37610;BME280;23457;51.966;8.230;2023-06-19T00:58:20;100227.00;;;24.73;47.54
37610;BME280;23457;51.966;8.230;2023-06-19T01:00:47;100229.25;;;24.63;47.91
37610;BME280;23457;51.966;8.230;2023-06-19T01:03:33;100216.44;;;24.54;48.27
37610;BME280;23457;51.966;8.230;2023-06-19T01:06:01;100229.31;;;24.61;48.22
37610;BME280;23457;51.966;8.230;2023-06-19T01:11:20;100237.63;;;24.55;49.09
37610;BME280;23457;51.966;8.230;2023-06-19T01:13:58;100244.28;;;24.45;48.92
37610;BME280;23457;51.966;8.230;2023-06-19T01:16:27;100244.28;;;24.45;49.19
37610;BME280;23457;51.966;8.230;2023-06-19T01:18:54;100249.78;;;24.23;49.58
37610;BME280;23457;51.966;8.230;2023-06-19T01:21:21;100261.84;;;24.31;49.07
37610;BME280;23457;51.966;8.230;2023-06-19T01:23:48;100252.19;;;24.09;49.42
37610;BME280;23457;51.966;8.230;2023-06-19T01:26:16;100251.59;;;24.21;49.33
37610;BME280;23457;51.966;8.230;2023-06-19T01:28:44;100255.03;;;24.25;49.75
37610;BME280;23457;51.966;8.230;2023-06-19T01:31:23;100263.16;;;24.20;49.20
37610;BME280;23457;51.966;8.230;2023-06-19T01:33:52;100268.41;;;24.22;49.46
37610;BME280;23457;51.966;8.230;2023-06-19T01:36:20;100266.97;;;24.15;49.98
37610;BME280;23457;51.966;8.230;2023-06-19T01:38:50;100268.69;;;24.16;49.73
37610;BME280;23457;51.966;8.230;2023-06-19T01:41:19;100266.63;;;24.04;50.11
37610;BME280;23457;51.966;8.230;2023-06-19T01:43:47;100261.16;;;24.07;50.29
37610;BME280;23457;51.966;8.230;2023-06-19T01:46:14;100265.63;;;24.06;50.07
37610;BME280;23457;51.966;8.230;2023-06-19T01:48:40;100254.16;;;24.06;50.24
37610;BME280;23457;51.966;8.230;2023-06-19T01:51:07;100258.34;;;24.10;50.20
37610;BME280;23457;51.966;8.230;2023-06-19T01:53:37;100262.97;;;24.06;50.18
37610;BME280;23457;51.966;8.230;2023-06-19T01:56:04;100255.69;;;24.10;50.47
37610;BME280;23457;51.966;8.230;2023-06-19T01:58:30;100246.75;;;24.12;50.71
37610;BME280;23457;51.966;8.230;2023-06-19T02:00:57;100244.28;;;24.08;50.57
37610;BME280;23457;51.966;8.230;2023-06-19T02:03:24;100247.97;;;24.05;50.84
37610;BME280;23457;51.966;8.230;2023-06-19T02:05:52;100246.88;;;24.09;50.82
37610;BME280;23457;51.966;8.230;2023-06-19T02:08:19;100235.97;;;24.15;50.66
37610;BME280;23457;51.966;8.230;2023-06-19T02:10:46;100240.28;;;24.18;50.66
37610;BME280;23457;51.966;8.230;2023-06-19T02:13:12;100237.91;;;24.12;50.89
37610;BME280;23457;51.966;8.230;2023-06-19T02:15:39;100238.34;;;24.03;51.26
37610;BME280;23457;51.966;8.230;2023-06-19T02:18:06;100242.28;;;24.13;51.21
37610;BME280;23457;51.966;8.230;2023-06-19T02:20:32;100234.84;;;24.02;51.62
37610;BME280;23457;51.966;8.230;2023-06-19T02:23:00;100236.63;;;24.02;51.50
37610;BME280;23457;51.966;8.230;2023-06-19T02:25:29;100242.28;;;23.94;51.78
37610;BME280;23457;51.966;8.230;2023-06-19T02:27:55;100237.06;;;23.92;51.82
37610;BME280;23457;51.966;8.230;2023-06-19T02:30:22;100243.00;;;23.98;51.85
37610;BME280;23457;51.966;8.230;2023-06-19T02:32:49;100235.97;;;23.97;52.45
37610;BME280;23457;51.966;8.230;2023-06-19T02:35:16;100236.13;;;23.93;52.60
37610;BME280;23457;51.966;8.230;2023-06-19T02:37:43;100247.38;;;23.80;53.64
37610;BME280;23457;51.966;8.230;2023-06-19T02:40:13;100242.84;;;23.82;53.53
37610;BME280;23457;51.966;8.230;2023-06-19T02:42:40;100238.13;;;23.88;53.17
37610;BME280;23457;51.966;8.230;2023-06-19T02:45:07;100237.06;;;23.92;53.19
37610;BME280;23457;51.966;8.230;2023-06-19T02:47:34;100235.47;;;23.88;53.07
37610;BME280;23457;51.966;8.230;2023-06-19T02:50:02;100233.09;;;23.82;53.49
37610;BME280;23457;51.966;8.230;2023-06-19T02:52:30;100243.94;;;23.78;54.16
37610;BME280;23457;51.966;8.230;2023-06-19T02:54:58;100240.19;;;23.82;54.37
37610;BME280;23457;51.966;8.230;2023-06-19T02:57:25;100238.69;;;23.76;54.56
37610;BME280;23457;51.966;8.230;2023-06-19T02:59:52;100232.66;;;23.73;55.02
37610;BME280;23457;51.966;8.230;2023-06-19T03:02:19;100238.69;;;23.76;54.27
37610;BME280;23457;51.966;8.230;2023-06-19T03:04:46;100236.31;;;23.70;54.23
37610;BME280;23457;51.966;8.230;2023-06-19T03:07:12;100232.72;;;23.71;54.95
37610;BME280;23457;51.966;8.230;2023-06-19T03:09:43;100233.03;;;23.65;55.15
37610;BME280;23457;51.966;8.230;2023-06-19T03:12:09;100235.69;;;23.65;54.89
37610;BME280;23457;51.966;8.230;2023-06-19T03:14:37;100238.41;;;23.64;55.73
37610;BME280;23457;51.966;8.230;2023-06-19T03:17:03;100243.47;;;23.48;55.74
37610;BME280;23457;51.966;8.230;2023-06-19T03:19:31;100241.63;;;23.50;55.50
37610;BME280;23457;51.966;8.230;2023-06-19T03:21:58;100247.00;;;23.48;55.76
37610;BME280;23457;51.966;8.230;2023-06-19T03:24:25;100250.50;;;23.49;55.96
37610;BME280;23457;51.966;8.230;2023-06-19T03:26:58;100252.94;;;23.55;56.23
37610;BME280;23457;51.966;8.230;2023-06-19T03:29:25;100252.22;;;23.51;56.73
37610;BME280;23457;51.966;8.230;2023-06-19T03:31:58;100254.63;;;23.36;57.88
37610;BME280;23457;51.966;8.230;2023-06-19T03:34:30;100256.78;;;23.28;57.82
37610;BME280;23457;51.966;8.230;2023-06-19T03:36:58;100260.59;;;23.20;57.65
37610;BME280;23457;51.966;8.230;2023-06-19T03:39:25;100253.38;;;23.24;57.25
37610;BME280;23457;51.966;8.230;2023-06-19T03:41:56;100270.66;;;23.33;56.89
37610;BME280;23457;51.966;8.230;2023-06-19T03:44:23;100262.06;;;23.28;57.50
37610;BME280;23457;51.966;8.230;2023-06-19T03:46:50;100263.25;;;23.20;57.71
37610;BME280;23457;51.966;8.230;2023-06-19T03:49:17;100266.69;;;23.22;57.47
37610;BME280;23457;51.966;8.230;2023-06-19T03:51:44;100266.50;;;23.27;57.66
37610;BME280;23457;51.966;8.230;2023-06-19T03:54:11;100267.09;;;23.13;57.96
37610;BME280;23457;51.966;8.230;2023-06-19T03:56:38;100266.69;;;23.22;58.78
37610;BME280;23457;51.966;8.230;2023-06-19T03:59:04;100266.69;;;23.02;59.27
37610;BME280;23457;51.966;8.230;2023-06-19T04:01:31;100261.69;;;23.16;58.63
37610;BME280;23457;51.966;8.230;2023-06-19T04:03:58;100269.22;;;23.26;58.37
37610;BME280;23457;51.966;8.230;2023-06-19T04:06:26;100271.81;;;23.27;58.97
37610;BME280;23457;51.966;8.230;2023-06-19T04:08:53;100269.97;;;23.29;59.53
37610;BME280;23457;51.966;8.230;2023-06-19T04:11:19;100273.78;;;23.22;59.62
37610;BME280;23457;51.966;8.230;2023-06-19T04:13:47;100277.13;;;23.27;59.82
37610;BME280;23457;51.966;8.230;2023-06-19T04:16:13;100272.47;;;23.12;60.43
37610;BME280;23457;51.966;8.230;2023-06-19T04:18:41;100286.25;;;23.20;60.56
37610;BME280;23457;51.966;8.230;2023-06-19T04:21:08;100285.38;;;23.19;61.57
37610;BME280;23457;51.966;8.230;2023-06-19T04:23:34;100286.97;;;23.23;60.93
37610;BME280;23457;51.966;8.230;2023-06-19T04:26:01;100289.44;;;23.28;60.94
37610;BME280;23457;51.966;8.230;2023-06-19T04:28:28;100285.00;;;23.29;61.37
37610;BME280;23457;51.966;8.230;2023-06-19T04:30:55;100290.44;;;23.26;63.10
37610;BME280;23457;51.966;8.230;2023-06-19T04:33:28;100292.28;;;23.23;62.41
37610;BME280;23457;51.966;8.230;2023-06-19T04:35:55;100295.34;;;23.35;61.67
37610;BME280;23457;51.966;8.230;2023-06-19T04:38:22;100286.84;;;23.27;61.57
37610;BME280;23457;51.966;8.230;2023-06-19T04:40:52;100293.03;;;23.27;62.00
37610;BME280;23457;51.966;8.230;2023-06-19T04:43:19;100302.09;;;23.21;63.26
37610;BME280;23457;51.966;8.230;2023-06-19T04:45:46;100312.16;;;23.13;64.13
37610;BME280;23457;51.966;8.230;2023-06-19T04:48:12;100315.34;;;23.21;63.55
37610;BME280;23457;51.966;8.230;2023-06-19T04:50:39;100318.03;;;23.00;64.66
37610;BME280;23457;51.966;8.230;2023-06-19T04:53:06;100326.31;;;22.92;65.82
37610;BME280;23457;51.966;8.230;2023-06-19T04:55:32;100323.78;;;22.89;65.28
37610;BME280;23457;51.966;8.230;2023-06-19T04:57:59;100322.34;;;23.02;65.55
37610;BME280;23457;51.966;8.230;2023-06-19T05:00:26;100323.81;;;23.09;65.80
37610;BME280;23457;51.966;8.230;2023-06-19T05:02:53;100328.31;;;23.07;66.43
37610;BME280;23457;51.966;8.230;2023-06-19T05:05:20;100336.13;;;23.10;66.30
37610;BME280;23457;51.966;8.230;2023-06-19T05:07:49;100333.66;;;23.28;65.54
37610;BME280;23457;51.966;8.230;2023-06-19T05:10:16;100346.75;;;23.31;65.65
37610;BME280;23457;51.966;8.230;2023-06-19T05:12:43;100346.50;;;23.37;65.83
37610;BME280;23457;51.966;8.230;2023-06-19T05:15:10;100347.78;;;23.48;65.31
37610;BME280;23457;51.966;8.230;2023-06-19T05:17:37;100353.03;;;23.50;66.52
37610;BME280;23457;51.966;8.230;2023-06-19T05:20:06;100355.06;;;23.65;65.45
37610;BME280;23457;51.966;8.230;2023-06-19T05:22:34;100353.44;;;23.41;65.95
37610;BME280;23457;51.966;8.230;2023-06-19T05:25:00;100368.56;;;23.59;65.89
37610;BME280;23457;51.966;8.230;2023-06-19T05:27:27;100365.53;;;23.68;66.23
37610;BME280;23457;51.966;8.230;2023-06-19T05:29:54;100359.28;;;23.69;65.96
37610;BME280;23457;51.966;8.230;2023-06-19T05:32:20;100363.34;;;23.78;65.83
37610;BME280;23457;51.966;8.230;2023-06-19T05:34:47;100374.34;;;23.89;65.94
37610;BME280;23457;51.966;8.230;2023-06-19T05:37:14;100378.59;;;23.93;66.49
37610;BME280;23457;51.966;8.230;2023-06-19T05:39:40;100364.66;;;23.88;66.55
37610;BME280;23457;51.966;8.230;2023-06-19T05:42:07;100372.00;;;24.02;66.31
37610;BME280;23457;51.966;8.230;2023-06-19T05:44:33;100373.53;;;23.87;68.14
37610;BME280;23457;51.966;8.230;2023-06-19T05:47:00;100367.50;;;23.83;67.84
37610;BME280;23457;51.966;8.230;2023-06-19T05:49:27;100375.59;;;24.01;67.45
37610;BME280;23457;51.966;8.230;2023-06-19T05:51:53;100381.63;;;24.04;67.48
37610;BME280;23457;51.966;8.230;2023-06-19T05:54:25;100379.44;;;24.33;66.89
37610;BME280;23457;51.966;8.230;2023-06-19T05:56:52;100385.91;;;24.07;68.00
37610;BME280;23457;51.966;8.230;2023-06-19T05:59:19;100389.09;;;24.15;68.44
37610;BME280;23457;51.966;8.230;2023-06-19T06:01:46;100395.06;;;24.20;68.80
37610;BME280;23457;51.966;8.230;2023-06-19T06:04:13;100401.31;;;24.19;69.17
37610;BME280;23457;51.966;8.230;2023-06-19T06:06:40;100393.97;;;24.05;69.43
37610;BME280;23457;51.966;8.230;2023-06-19T06:09:07;100396.16;;;24.16;69.60
37610;BME280;23457;51.966;8.230;2023-06-19T06:11:37;100395.81;;;24.23;69.74
37610;BME280;23457;51.966;8.230;2023-06-19T06:14:04;100397.91;;;24.36;69.18
37610;BME280;23457;51.966;8.230;2023-06-19T06:16:30;100395.31;;;24.34;69.52
37610;BME280;23457;51.966;8.230;2023-06-19T06:18:57;100402.50;;;24.12;70.74
37610;BME280;23457;51.966;8.230;2023-06-19T06:21:25;100411.56;;;24.28;70.02
37610;BME280;23457;51.966;8.230;2023-06-19T06:23:52;100412.22;;;23.92;72.00
37610;BME280;23457;51.966;8.230;2023-06-19T06:26:19;100418.50;;;24.10;71.47
37610;BME280;23457;51.966;8.230;2023-06-19T06:28:46;100409.53;;;24.33;71.16
37610;BME280;23457;51.966;8.230;2023-06-19T06:31:12;100415.53;;;24.18;70.87
37610;BME280;23457;51.966;8.230;2023-06-19T06:33:39;100413.22;;;24.49;70.82
37610;BME280;23457;51.966;8.230;2023-06-19T06:36:06;100416.25;;;24.42;71.65
37610;BME280;23457;51.966;8.230;2023-06-19T06:38:34;100418.31;;;24.54;70.46
37610;BME280;23457;51.966;8.230;2023-06-19T06:41:01;100432.78;;;24.67;69.79
37610;BME280;23457;51.966;8.230;2023-06-19T06:43:27;100434.53;;;24.29;71.24
37610;BME280;23457;51.966;8.230;2023-06-19T06:45:54;100433.22;;;24.38;70.93
37610;BME280;23457;51.966;8.230;2023-06-19T06:48:21;100431.34;;;24.19;70.77
37610;BME280;23457;51.966;8.230;2023-06-19T06:50:47;100448.91;;;24.23;70.95
37610;BME280;23457;51.966;8.230;2023-06-19T06:53:14;100458.28;;;23.91;72.71
37610;BME280;23457;51.966;8.230;2023-06-19T06:55:40;100453.00;;;24.10;72.08
37610;BME280;23457;51.966;8.230;2023-06-19T06:58:07;100470.47;;;24.16;72.62
37610;BME280;23457;51.966;8.230;2023-06-19T07:00:34;100469.50;;;24.18;72.09
37610;BME280;23457;51.966;8.230;2023-06-19T07:03:00;100476.72;;;24.15;72.69
37610;BME280;23457;51.966;8.230;2023-06-19T07:05:27;100471.13;;;24.21;72.34
37610;BME280;23457;51.966;8.230;2023-06-19T07:07:56;100481.09;;;24.16;73.33
37610;BME280;23457;51.966;8.230;2023-06-19T07:10:22;100484.81;;;24.12;72.96
37610;BME280;23457;51.966;8.230;2023-06-19T07:12:50;100479.06;;;24.22;73.32
37610;BME280;23457;51.966;8.230;2023-06-19T07:15:18;100476.78;;;24.13;73.57
37610;BME280;23457;51.966;8.230;2023-06-19T07:17:45;100480.47;;;24.31;72.77
37610;BME280;23457;51.966;8.230;2023-06-19T07:20:12;100476.47;;;24.41;72.64
37610;BME280;23457;51.966;8.230;2023-06-19T07:22:39;100479.81;;;24.65;72.71
37610;BME280;23457;51.966;8.230;2023-06-19T07:25:07;100474.06;;;24.55;71.28
37610;BME280;23457;51.966;8.230;2023-06-19T07:27:34;100471.84;;;24.45;72.17
37610;BME280;23457;51.966;8.230;2023-06-19T07:30:01;100479.84;;;24.24;72.46
37610;BME280;23457;51.966;8.230;2023-06-19T07:32:28;100475.78;;;24.16;71.67
37610;BME280;23457;51.966;8.230;2023-06-19T07:34:54;100484.81;;;24.12;71.29
37610;BME280;23457;51.966;8.230;2023-06-19T07:37:21;100480.03;;;24.00;71.65
37610;BME280;23457;51.966;8.230;2023-06-19T07:39:49;100486.38;;;23.96;71.78
37610;BME280;23457;51.966;8.230;2023-06-19T07:42:17;100491.38;;;24.03;73.21
37610;BME280;23457;51.966;8.230;2023-06-19T07:44:46;100482.16;;;24.32;73.15
37610;BME280;23457;51.966;8.230;2023-06-19T07:47:15;100490.84;;;24.56;70.45
37610;BME280;23457;51.966;8.230;2023-06-19T07:49:42;100487.41;;;24.54;72.51
37610;BME280;23457;51.966;8.230;2023-06-19T07:52:09;100491.84;;;24.53;71.27
37610;BME280;23457;51.966;8.230;2023-06-19T07:54:36;100488.94;;;24.39;71.84
37610;BME280;23457;51.966;8.230;2023-06-19T07:57:03;100486.97;;;24.44;70.06
37610;BME280;23457;51.966;8.230;2023-06-19T07:59:30;100489.81;;;24.58;69.53
37610;BME280;23457;51.966;8.230;2023-06-19T08:01:56;100495.69;;;24.46;71.93
37610;BME280;23457;51.966;8.230;2023-06-19T08:04:23;100496.84;;;24.41;71.62
37610;BME280;23457;51.966;8.230;2023-06-19T08:06:50;100498.91;;;24.34;72.00
37610;BME280;23457;51.966;8.230;2023-06-19T08:09:16;100492.28;;;24.63;74.60
37610;BME280;23457;51.966;8.230;2023-06-19T08:11:43;100496.59;;;24.84;72.59
37610;BME280;23457;51.966;8.230;2023-06-19T08:14:09;100506.78;;;24.56;73.44
37610;BME280;23457;51.966;8.230;2023-06-19T08:16:36;100504.16;;;24.36;72.24
37610;BME280;23457;51.966;8.230;2023-06-19T08:19:03;100517.38;;;24.37;72.82
37610;BME280;23457;51.966;8.230;2023-06-19T08:21:29;100514.94;;;24.11;72.92
37610;BME280;23457;51.966;8.230;2023-06-19T08:23:56;100516.69;;;24.32;73.93
37610;BME280;23457;51.966;8.230;2023-06-19T08:26:23;100518.16;;;24.19;72.30
37610;BME280;23457;51.966;8.230;2023-06-19T08:28:49;100518.28;;;24.16;74.41
37610;BME280;23457;51.966;8.230;2023-06-19T08:31:16;100524.88;;;24.27;70.72
37610;BME280;23457;51.966;8.230;2023-06-19T08:33:43;100525.56;;;24.11;70.77
37610;BME280;23457;51.966;8.230;2023-06-19T08:36:09;100533.47;;;24.12;70.92
37610;BME280;23457;51.966;8.230;2023-06-19T08:38:36;100540.53;;;24.34;71.82
37610;BME280;23457;51.966;8.230;2023-06-19T08:41:03;100539.53;;;24.36;70.54
37610;BME280;23457;51.966;8.230;2023-06-19T08:43:29;100536.44;;;24.26;71.08
37610;BME280;23457;51.966;8.230;2023-06-19T08:46:09;100543.09;;;24.15;70.97
37610;BME280;23457;51.966;8.230;2023-06-19T08:48:36;100546.75;;;24.33;69.87
37610;BME280;23457;51.966;8.230;2023-06-19T08:51:04;100544.97;;;24.33;70.45
37610;BME280;23457;51.966;8.230;2023-06-19T08:53:35;100547.19;;;24.22;71.23
37610;BME280;23457;51.966;8.230;2023-06-19T08:56:04;100543.91;;;24.37;71.20
37610;BME280;23457;51.966;8.230;2023-06-19T08:58:32;100549.06;;;24.20;72.50
37610;BME280;23457;51.966;8.230;2023-06-19T09:00:59;100556.94;;;24.01;71.39
37610;BME280;23457;51.966;8.230;2023-06-19T09:03:25;100558.53;;;24.27;71.12
37610;BME280;23457;51.966;8.230;2023-06-19T09:05:52;100552.75;;;24.38;69.76
37610;BME280;23457;51.966;8.230;2023-06-19T09:08:22;100557.03;;;24.20;70.52
37610;BME280;23457;51.966;8.230;2023-06-19T09:11:00;100561.19;;;24.27;70.71
37610;BME280;23457;51.966;8.230;2023-06-19T09:13:29;100561.06;;;24.08;71.89
37610;BME280;23457;51.966;8.230;2023-06-19T09:16:01;100560.38;;;24.25;69.84
37610;BME280;23457;51.966;8.230;2023-06-19T09:18:45;100561.06;;;24.30;70.72
37610;BME280;23457;51.966;8.230;2023-06-19T09:21:19;100565.91;;;24.41;71.00
37610;BME280;23457;51.966;8.230;2023-06-19T09:23:48;100568.91;;;24.53;69.66
37610;BME280;23457;51.966;8.230;2023-06-19T09:26:18;100568.72;;;24.77;68.30
37610;BME280;23457;51.966;8.230;2023-06-19T09:28:46;100567.41;;;24.67;67.77
37610;BME280;23457;51.966;8.230;2023-06-19T09:31:13;100572.53;;;24.51;69.94
37610;BME280;23457;51.966;8.230;2023-06-19T09:33:40;100565.91;;;24.41;70.30
37610;BME280;23457;51.966;8.230;2023-06-19T09:36:07;100572.44;;;24.73;68.08
37610;BME280;23457;51.966;8.230;2023-06-19T09:38:36;100566.84;;;24.99;69.25
37610;BME280;23457;51.966;8.230;2023-06-19T09:41:12;100565.91;;;25.00;68.62
37610;BME280;23457;51.966;8.230;2023-06-19T09:43:42;100576.06;;;25.11;68.06
37610;BME280;23457;51.966;8.230;2023-06-19T09:46:11;100569.09;;;24.88;67.23
37610;BME280;23457;51.966;8.230;2023-06-19T09:48:45;100579.38;;;24.77;68.54
37610;BME280;23457;51.966;8.230;2023-06-19T09:51:20;100585.59;;;24.76;68.38
37610;BME280;23457;51.966;8.230;2023-06-19T09:53:51;100581.34;;;24.72;68.39
37610;BME280;23457;51.966;8.230;2023-06-19T09:56:18;100582.69;;;24.82;68.19
37610;BME280;23457;51.966;8.230;2023-06-19T09:58:51;100587.22;;;24.80;68.27
37610;BME280;23457;51.966;8.230;2023-06-19T10:01:19;100586.13;;;24.84;67.98
37610;BME280;23457;51.966;8.230;2023-06-19T10:03:46;100585.09;;;24.68;66.58
37610;BME280;23457;51.966;8.230;2023-06-19T10:06:16;100594.09;;;24.84;66.83
37610;BME280;23457;51.966;8.230;2023-06-19T10:08:44;100588.06;;;24.60;67.40
37610;BME280;23457;51.966;8.230;2023-06-19T10:11:12;100590.88;;;24.37;69.91
37610;BME280;23457;51.966;8.230;2023-06-19T10:13:42;100590.13;;;24.74;70.15
37610;BME280;23457;51.966;8.230;2023-06-19T10:16:22;100606.41;;;24.46;69.04
37610;BME280;23457;51.966;8.230;2023-06-19T10:18:50;100603.16;;;24.80;69.60
37610;BME280;23457;51.966;8.230;2023-06-19T10:21:20;100589.22;;;24.95;68.75
37610;BME280;23457;51.966;8.230;2023-06-19T10:23:57;100593.41;;;25.19;69.94
37610;BME280;23457;51.966;8.230;2023-06-19T10:26:34;100597.84;;;25.56;67.48
37610;BME280;23457;51.966;8.230;2023-06-19T10:29:01;100590.97;;;25.71;66.77
37610;BME280;23457;51.966;8.230;2023-06-19T10:31:30;100594.69;;;25.48;68.72
37610;BME280;23457;51.966;8.230;2023-06-19T10:33:57;100599.59;;;25.20;67.94
37610;BME280;23457;51.966;8.230;2023-06-19T10:36:24;100591.22;;;25.09;68.04
37610;BME280;23457;51.966;8.230;2023-06-19T10:38:52;100600.97;;;25.08;68.92
37610;BME280;23457;51.966;8.230;2023-06-19T10:41:22;100605.47;;;25.26;67.63
37610;BME280;23457;51.966;8.230;2023-06-19T10:44:03;100598.00;;;25.34;67.28
37610;BME280;23457;51.966;8.230;2023-06-19T10:46:35;100604.91;;;25.39;66.96
37610;BME280;23457;51.966;8.230;2023-06-19T10:49:06;100604.59;;;25.07;67.65
37610;BME280;23457;51.966;8.230;2023-06-19T10:51:35;100601.53;;;24.96;68.56
37610;BME280;23457;51.966;8.230;2023-06-19T10:54:02;100600.00;;;25.11;68.90
37610;BME280;23457;51.966;8.230;2023-06-19T10:56:28;100595.84;;;25.43;68.07
37610;BME280;23457;51.966;8.230;2023-06-19T10:59:07;100597.84;;;25.38;68.19
37610;BME280;23457;51.966;8.230;2023-06-19T11:01:47;100599.13;;;25.48;67.09
37610;BME280;23457;51.966;8.230;2023-06-19T11:04:15;100602.72;;;25.84;67.92
37610;BME280;23457;51.966;8.230;2023-06-19T11:06:44;100603.88;;;25.60;67.12
37610;BME280;23457;51.966;8.230;2023-06-19T11:09:12;100607.22;;;25.65;66.28
37610;BME280;23457;51.966;8.230;2023-06-19T11:14:16;100619.28;;;25.34;68.03
37610;BME280;23457;51.966;8.230;2023-06-19T11:16:46;100603.53;;;25.49;66.93
37610;BME280;23457;51.966;8.230;2023-06-19T11:19:19;100607.22;;;25.65;65.96
37610;BME280;23457;51.966;8.230;2023-06-19T11:21:50;100605.19;;;25.51;68.48
37610;BME280;23457;51.966;8.230;2023-06-19T11:24:22;100600.59;;;25.55;67.27
37610;BME280;23457;51.966;8.230;2023-06-19T11:27:13;100591.38;;;25.81;66.59
37610;BME280;23457;51.966;8.230;2023-06-19T11:29:45;100593.66;;;25.88;64.78
37610;BME280;23457;51.966;8.230;2023-06-19T11:32:18;100603.75;;;25.82;61.48
37610;BME280;23457;51.966;8.230;2023-06-19T11:34:53;100602.50;;;25.89;61.01
37610;BME280;23457;51.966;8.230;2023-06-19T11:37:19;100600.31;;;26.50;62.63
37610;BME280;23457;51.966;8.230;2023-06-19T11:39:49;100593.41;;;27.14;60.51
37610;BME280;23457;51.966;8.230;2023-06-19T11:42:18;100601.75;;;27.23;57.61
37610;BME280;23457;51.966;8.230;2023-06-19T11:44:54;100597.22;;;27.88;56.45
37610;BME280;23457;51.966;8.230;2023-06-19T11:47:21;100600.69;;;27.90;58.80
37610;BME280;23457;51.966;8.230;2023-06-19T11:49:49;100591.53;;;28.10;55.06
37610;BME280;23457;51.966;8.230;2023-06-19T11:52:16;100597.09;;;28.37;55.90
37610;BME280;23457;51.966;8.230;2023-06-19T11:54:44;100604.97;;;28.68;52.26
37610;BME280;23457;51.966;8.230;2023-06-19T11:57:15;100600.31;;;28.72;53.38
37610;BME280;23457;51.966;8.230;2023-06-19T11:59:43;100595.09;;;28.55;52.75
37610;BME280;23457;51.966;8.230;2023-06-19T12:02:12;100599.75;;;28.37;52.86
37610;BME280;23457;51.966;8.230;2023-06-19T12:04:39;100594.63;;;28.02;51.48
37610;BME280;23457;51.966;8.230;2023-06-19T12:07:10;100591.88;;;28.04;55.78
37610;BME280;23457;51.966;8.230;2023-06-19T12:09:39;100589.31;;;27.87;54.82
37610;BME280;23457;51.966;8.230;2023-06-19T12:12:37;100588.28;;;27.42;54.72
37610;BME280;23457;51.966;8.230;2023-06-19T12:15:05;100587.75;;;27.51;54.55
37610;BME280;23457;51.966;8.230;2023-06-19T12:17:32;100565.38;;;27.85;54.15
37610;BME280;23457;51.966;8.230;2023-06-19T12:20:00;100582.31;;;28.00;54.21
37610;BME280;23457;51.966;8.230;2023-06-19T12:22:27;100590.47;;;28.12;52.89
37610;BME280;23457;51.966;8.230;2023-06-19T12:24:54;100589.28;;;28.02;52.75
37610;BME280;23457;51.966;8.230;2023-06-19T12:27:21;100590.66;;;28.09;52.42
37610;BME280;23457;51.966;8.230;2023-06-19T12:29:50;100582.75;;;27.92;51.76
37610;BME280;23457;51.966;8.230;2023-06-19T12:32:27;100587.94;;;27.95;51.51
37610;BME280;23457;51.966;8.230;2023-06-19T12:34:58;100589.50;;;27.84;52.36
37610;BME280;23457;51.966;8.230;2023-06-19T12:37:25;100587.38;;;28.20;51.86
37610;BME280;23457;51.966;8.230;2023-06-19T12:39:55;100583.63;;;27.77;52.47
37610;BME280;23457;51.966;8.230;2023-06-19T12:42:22;100584.66;;;27.74;54.18
37610;BME280;23457;51.966;8.230;2023-06-19T12:44:49;100580.16;;;28.06;52.49
37610;BME280;23457;51.966;8.230;2023-06-19T12:47:15;100582.88;;;28.50;52.59
37610;BME280;23457;51.966;8.230;2023-06-19T12:49:44;100592.72;;;28.64;53.02
37610;BME280;23457;51.966;8.230;2023-06-19T12:52:11;100591.94;;;28.92;50.40
37610;BME280;23457;51.966;8.230;2023-06-19T12:54:37;100587.59;;;28.75;51.06
37610;BME280;23457;51.966;8.230;2023-06-19T12:57:04;100588.13;;;28.96;49.43
37610;BME280;23457;51.966;8.230;2023-06-19T12:59:31;100590.09;;;29.35;48.17
37610;BME280;23457;51.966;8.230;2023-06-19T13:01:59;100596.03;;;29.26;47.37